Terminal Aerodrome Forecast
Issued by NWS Duluth, MN

Home | Current Version | Previous Version | Text Only | Print | Product List | Glossary On
Versions: 1 2 3 4 5 6 7 8 9 10 11 12 13 14 15 16 17 18
113
FTUS43 KDLH 172333
TAFDLH
TAF
KDLH 172333Z 1800/1824 25010KT P6SM SKC WS020/28045KT
     FM180600 26008KT P6SM SCT200
     FM181000 25007KT P6SM VCSH SCT040 BKN150 WS020/29040KT
     FM181400 26010KT 6SM -SN OVC040
     FM181700 27010KT P6SM BKN040=

USA.gov is the U.S. government's official web portal to all federal, state and local government web resources and services.